Flight Track Log - Related Links

Times and Time Zones

All times are in EDT time to prevent confusion due to time zone crossing. See the AAY875 flight status page for this flight to view local times or setup timezone preferences in your user account.

Time Position Orientation Groundspeed Altitude Reporting Facility
EDT Latitude Longitude Course Direction KTS MPH feet Rate Location/Type
Tue 06:46:42 PM 44.7867 -68.7894 226° Southwest 204 235 1,900  Level Boston Center
Tue 06:47:43 PM 44.7361 -68.7917 182° South 199 229 4,100 2,341 Climbing Boston Center
Tue 06:48:45 PM 44.6969 -68.8500 227° Southwest 199 229 6,700 2,537 Climbing Boston Center
Tue 06:49:46 PM 44.6564 -68.9125 228° Southwest 208 239 9,300 2,066 Climbing Boston Center
Tue 06:50:47 PM 44.6117 -68.9778 226° Southwest 222 255 10,900 1,415 Climbing Boston Center
Tue 06:51:49 PM 44.5572 -69.0589 227° Southwest 267 307 12,200 1,659 Climbing Boston Center
Tue 06:52:00 PM 44.4122 -69.3826 226° Southwest  Level FlightAware Approximate
Tue 06:52:50 PM 44.4983 -69.1469 227° Southwest 297 342 14,300  Level Boston Center
Tue 06:53:51 PM 44.4358 -69.2389 226° Southwest 314 361 16,400 2,000 Climbing Boston Center
Tue 06:54:53 PM 44.3711 -69.3333 226° Southwest 328 377 18,400 1,707 Climbing Boston Center
Tue 06:55:54 PM 44.3042 -69.4311 226° Southwest 340 391 19,900 1,525 Climbing Boston Center
Tue 06:56:55 PM 44.2347 -69.5311 226° Southwest 353 406 21,500 1,415 Climbing Boston Center
Tue 06:57:57 PM 44.1633 -69.6350 226° Southwest 365 420 22,800 1,366 Climbing Boston Center
Tue 06:58:58 PM 44.0914 -69.7386 226° Southwest 368 423 24,300 1,317 Climbing Boston Center
Tue 07:00:00 PM 44.0186 -69.8458 227° Southwest 374 430 25,500 1,317 Climbing Boston Center
Tue 07:01:01 PM 43.9458 -69.9506 226° Southwest 376 433 27,000 1,426 Climbing Boston Center
Tue 07:02:02 PM 43.8717 -70.0556 226° Southwest 377 434 28,400 1,268 Climbing Boston Center
Tue 07:03:04 PM 43.8019 -70.1633 228° Southwest 374 430 29,600 780 Climbing Boston Center
Tue 07:04:05 PM 43.7294 -70.2625 225° Southwest 368 423 30,000 197 Climbing Boston Center
Tue 07:05:06 PM 43.6461 -70.3822 226° Southwest 361 415 30,000  Level Boston Center
Tue 07:06:07 PM 43.5725 -70.4778 223° Southwest 360 414 30,000  Level Boston Center
Tue 07:07:09 PM 43.5022 -70.5792 226° Southwest 362 417 30,000  Level Boston Center
Tue 07:08:10 PM 43.4306 -70.6781 225° Southwest 362 417 30,000  Level Boston Center
Tue 07:09:11 PM 43.3625 -70.7733 226° Southwest 362 417 30,000  Level Boston Center
Tue 07:10:13 PM 43.2922 -70.8703 225° Southwest 362 417 30,000  Level Boston Center
Tue 07:11:14 PM 43.2217 -70.9714 226° Southwest 363 418 30,000  Level Boston Center
Tue 07:12:15 PM 43.1506 -71.0697 225° Southwest 366 421 30,000  Level Boston Center
Tue 07:13:16 PM 43.0792 -71.1675 225° Southwest 367 422 30,000  Level Boston Center
Tue 07:14:18 PM 42.9928 -71.2853 225° Southwest 367 422 30,000  Level Boston Center
Tue 07:15:19 PM 42.9211 -71.3825 225° Southwest 366 421 30,000  Level Boston Center
Tue 07:16:20 PM 42.8503 -71.4794 225° Southwest 366 421 30,000  Level Boston Center
Tue 07:17:22 PM 42.7883 -71.5628 225° Southwest 365 420 30,000  Level Boston Center
Tue 07:18:23 PM 42.7003 -71.6814 225° Southwest 365 420 30,000  Level Boston Center
Tue 07:19:24 PM 42.6297 -71.7775 225° Southwest 365 420 30,000  Level Boston Center
Tue 07:20:25 PM 42.5597 -71.8733 225° Southwest 357 411 30,000  Level Boston Center
Tue 07:21:27 PM 42.4883 -71.9686 225° Southwest 357 411 30,000  Level Boston Center
Tue 07:22:28 PM 42.4175 -72.0614 224° Southwest 356 410 30,000  Level Boston Center
Tue 07:23:29 PM 42.3478 -72.1561 225° Southwest 355 409 30,000  Level Boston Center
Tue 07:24:30 PM 42.2764 -72.2489 224° Southwest 354 407 30,000  Level Boston Center
Tue 07:25:32 PM 42.2053 -72.3414 224° Southwest 354 407 30,000  Level Boston Center
Tue 07:26:33 PM 42.1364 -72.4347 225° Southwest 352 405 30,000  Level Boston Center
Tue 07:27:34 PM 42.0656 -72.5267 224° Southwest 351 404 30,000  Level Boston Center
Tue 07:28:35 PM 41.9953 -72.6186 224° Southwest 351 404 30,000  Level Boston Center
Tue 07:29:36 PM 41.9242 -72.7111 224° Southwest 351 404 30,000  Level Boston Center
Tue 07:30:38 PM 41.8550 -72.8061 226° Southwest 351 404 30,000  Level Boston Center
Tue 07:31:39 PM 41.7850 -72.9006 225° Southwest 354 407 30,000  Level Boston Center
Tue 07:32:40 PM 41.7158 -72.9961 226° Southwest 354 407 30,000 197 Level Boston Center
Tue 07:33:41 PM 41.6472 -73.0908 226° Southwest 354 407 30,400 590 Climbing Boston Center
Tue 07:34:42 PM 41.5783 -73.1828 225° Southwest 353 406 31,200 787 Climbing Boston Center
Tue 07:35:43 PM 41.4989 -73.2886 225° Southwest 340 391 32,000 393 Climbing Boston Center
Tue 07:36:44 PM 41.4342 -73.3772 226° Southwest 338 389 32,000  Level Boston Center
Tue 07:37:45 PM 41.3686 -73.4628 224° Southwest 335 386 32,000  Level Boston Center
Tue 07:38:47 PM 41.3022 -73.5514 225° Southwest 336 387 32,000  Level Boston Center
Tue 07:39:48 PM 41.2411 -73.6444 229° Southwest 336 387 32,000  Level Boston Center
Tue 07:40:49 PM 41.1847 -73.7411 232° Southwest 336 387 32,000  Level Boston Center
Tue 07:41:50 PM 41.1286 -73.8378 232° Southwest 334 384 32,000  Level Boston Center
Tue 07:42:37 PM 41.0842 -73.9175 234° Southwest 343 395 32,000  Level New York Center
Tue 07:43:37 PM 41.0256 -74.0111 230° Southwest 337 388 32,000  Level New York Center
Tue 07:44:38 PM 40.9708 -74.1047 232° Southwest 337 388 32,000  Level New York Center
Tue 07:45:37 PM 40.9119 -74.1950 229° Southwest 337 388 32,000  Level New York Center
Tue 07:46:37 PM 40.8550 -74.2911 232° Southwest 337 388 32,000 -50 Level New York Center
Tue 07:47:37 PM 40.7958 -74.3867 231° Southwest 337 388 31,900  Descending New York Center
Tue 07:48:37 PM 40.7408 -74.4794 232° Southwest 337 388 32,000 50 Climbing New York Center
Tue 07:49:37 PM 40.6858 -74.5722 232° Southwest 337 388 32,000  Level New York Center
Tue 07:50:37 PM 40.6286 -74.6675 232° Southwest 337 388 32,000 -50 Level New York Center
Tue 07:51:37 PM 40.5714 -74.7572 230° Southwest 337 388 31,900  Descending New York Center
Tue 07:52:37 PM 40.5119 -74.8467 229° Southwest 337 388 32,000 50 Climbing New York Center
Tue 07:53:37 PM 40.4486 -74.9328 226° Southwest 332 382 32,000 -50 Level New York Center
Tue 07:54:37 PM 40.3892 -75.0192 228° Southwest 327 376 31,900  Descending New York Center
Tue 07:55:37 PM 40.3192 -75.1156 226° Southwest 333 383 32,000 50 Climbing New York Center
Tue 07:56:37 PM 40.2575 -75.2014 227° Southwest 333 383 32,000  Level New York Center
Tue 07:57:37 PM 40.1981 -75.2872 228° Southwest 333 383 32,000  Level New York Center
Tue 07:58:37 PM 40.1364 -75.3731 227° Southwest 333 383 32,000  Level New York Center
Tue 07:59:37 PM 40.0767 -75.4558 227° Southwest 333 383 32,000 -50 Level New York Center
Tue 08:00:37 PM 40.0172 -75.5386 227° Southwest 333 383 31,900  Descending New York Center
Tue 08:01:37 PM 39.9575 -75.6239 228° Southwest 333 383 32,000 50 Climbing New York Center
Tue 08:02:37 PM 39.8997 -75.7064 228° Southwest 327 376 32,000  Level New York Center
Tue 08:03:37 PM 39.8461 -75.7947 232° Southwest 322 371 32,000  Level New York Center
Tue 08:05:16 PM 39.7589 -75.9317 230° Southwest 308 354 32,000  Level Washington Center
Tue 08:06:16 PM 39.7025 -76.0178 230° Southwest 308 354 32,000  Level Washington Center
Tue 08:07:14 PM 39.6500 -76.1064 232° Southwest 308 354 32,000 -50 Level Washington Center
Tue 08:08:15 PM 39.5956 -76.1894 230° Southwest 308 354 31,900  Descending Washington Center
Tue 08:09:16 PM 39.5408 -76.2722 229° Southwest 308 354 32,000  Climbing Washington Center
Tue 08:10:14 PM 39.4861 -76.3578 230° Southwest 308 354 31,900  Descending Washington Center
Tue 08:11:15 PM 39.4314 -76.4406 229° Southwest 308 354 32,000  Climbing Washington Center
Tue 08:12:15 PM 39.3872 -76.5100 231° Southwest 308 354 31,900  Descending Washington Center
Tue 08:13:16 PM 39.3261 -76.6031 230° Southwest 308 354 32,000 50 Climbing Washington Center
Tue 08:14:14 PM 39.2731 -76.6856 230° Southwest 308 354 32,000  Level Washington Center
Tue 08:15:15 PM 39.2181 -76.7703 230° Southwest 308 354 32,000  Level Washington Center
Tue 08:16:15 PM 39.1631 -76.8550 230° Southwest 308 354 32,000  Level Washington Center
Tue 08:17:17 PM 39.1100 -76.9397 231° Southwest 308 354 32,000  Level Washington Center
Tue 08:18:15 PM 39.0569 -77.0217 230° Southwest 308 354 32,000  Level Washington Center
Tue 08:19:16 PM 38.9936 -77.0953 222° Southwest 303 349 32,000  Level Washington Center
Tue 08:20:17 PM 38.9261 -77.1633 218° Southwest 308 354 32,000  Level Washington Center
Tue 08:21:14 PM 38.8583 -77.2311 218° Southwest 308 354 32,000  Level Washington Center
Tue 08:22:14 PM 38.7928 -77.2989 219° Southwest 308 354 32,000  Level Washington Center
Tue 08:23:15 PM 38.7294 -77.3667 220° Southwest 308 354 32,000  Level Washington Center
Tue 08:24:15 PM 38.6617 -77.4314 217° Southwest 303 349 32,000  Level Washington Center
Tue 08:25:14 PM 38.5958 -77.5017 220° Southwest 308 354 32,000  Level Washington Center
Tue 08:26:14 PM 38.5303 -77.5664 218° Southwest 308 354 32,000  Level Washington Center
Tue 08:27:16 PM 38.4581 -77.6386 218° Southwest 303 349 32,000  Level Washington Center
Tue 08:28:16 PM 38.3944 -77.7058 220° Southwest 303 349 32,000  Level Washington Center
Tue 08:29:14 PM 38.3264 -77.7725 218° Southwest 303 349 32,000  Level Washington Center
Tue 08:30:14 PM 38.2628 -77.8394 220° Southwest 303 349 32,000  Level Washington Center
Tue 08:31:16 PM 38.1969 -77.9036 217° Southwest 303 349 32,000  Level Washington Center
Tue 08:32:14 PM 38.1308 -77.9703 218° Southwest 303 349 32,000  Level Washington Center
Tue 08:33:14 PM 38.0669 -78.0342 218° Southwest 308 354 32,000  Level Washington Center
Tue 08:34:15 PM 38.0075 -78.0900 217° Southwest 303 349 32,000  Level Washington Center
Tue 08:35:16 PM 37.9436 -78.1539 218° Southwest 303 349 32,000  Level Washington Center
Tue 08:36:14 PM 37.8817 -78.2203 220° Southwest 303 349 32,000  Level Washington Center
Tue 08:37:15 PM 37.8156 -78.2836 217° Southwest 303 349 32,000  Level Washington Center
Tue 08:38:15 PM 37.7517 -78.3497 219° Southwest 303 349 32,000  Level Washington Center
Tue 08:39:14 PM 37.6792 -78.4178 217° Southwest 303 349 32,000  Level Washington Center
Tue 08:40:14 PM 37.6150 -78.4808 218° Southwest 303 349 32,000  Level Washington Center
Tue 08:41:16 PM 37.5489 -78.5439 217° Southwest 303 349 32,000  Level Washington Center
Tue 08:42:16 PM 37.4825 -78.6119 219° Southwest 308 354 32,000  Level Washington Center
Tue 08:43:14 PM 37.4183 -78.6722 217° Southwest 308 354 32,000  Level Washington Center
Tue 08:44:14 PM 37.3583 -78.7300 217° Southwest 308 354 32,000  Level Washington Center
Tue 08:45:16 PM 37.2919 -78.7925 217° Southwest 308 354 32,000  Level Washington Center
Tue 08:46:14 PM 37.2256 -78.8575 218° Southwest 308 354 32,000  Level Washington Center
Tue 08:47:15 PM 37.1614 -78.9225 219° Southwest 308 354 32,000  Level Washington Center
Tue 08:48:15 PM 37.0950 -78.9847 217° Southwest 308 354 32,000  Level Washington Center
Tue 08:49:16 PM 37.0219 -79.0544 217° Southwest 308 354 32,000  Level Washington Center
Tue 08:50:16 PM 36.9575 -79.1164 218° Southwest 308 354 32,000  Level Washington Center
Tue 08:51:15 PM 36.8889 -79.1783 216° Southwest 308 354 32,000  Level Washington Center
Tue 08:52:15 PM 36.8244 -79.2428 219° Southwest 308 354 32,000  Level Washington Center
Tue 08:53:14 PM 36.7600 -79.3019 216° Southwest 303 349 32,000  Level Washington Center
Tue 08:54:15 PM 36.6975 -79.3611 217° Southwest 309 356 32,000  Level Washington Center
Tue 08:55:16 PM 36.6331 -79.4228 218° Southwest 309 356 32,000  Level Washington Center
Tue 08:56:16 PM 36.5664 -79.4867 218° Southwest 309 356 32,000  Level Washington Center
Tue 08:57:14 PM 36.5017 -79.5506 218° Southwest 304 350 32,000  Level Washington Center
Tue 09:00:10 PM 36.3058 -79.7286 216° Southwest 295 339 32,000  Level Atlanta Center
Tue 09:01:10 PM 36.2392 -79.7914 217° Southwest 295 339 32,000  Level Atlanta Center
Tue 09:02:10 PM 36.1644 -79.8594 216° Southwest 300 345 32,000  Level Atlanta Center
Tue 09:03:10 PM 36.1119 -79.9083 217° Southwest 294 338 32,000  Level Atlanta Center
Tue 09:04:10 PM 36.0308 -79.9819 216° Southwest 294 338 32,000  Level Atlanta Center
Tue 09:05:10 PM 35.9550 -80.0192 202° Southwest 300 345 32,000  Level Atlanta Center
Tue 09:06:10 PM 35.8831 -80.0533 201° Southwest 306 352 32,000  Level Atlanta Center
Tue 09:07:10 PM 35.8072 -80.0956 204° Southwest 306 352 32,000  Level Atlanta Center
Tue 09:08:10 PM 35.7269 -80.1325 200° South 306 352 32,000  Level Atlanta Center
Tue 09:09:10 PM 35.6492 -80.1747 204° Southwest 306 352 32,000  Level Atlanta Center
Tue 09:10:10 PM 35.5692 -80.2167 203° Southwest 306 352 32,000  Level Atlanta Center
Tue 09:11:10 PM 35.4911 -80.2561 202° Southwest 306 352 32,000  Level Atlanta Center
Tue 09:12:10 PM 35.4086 -80.2956 201° Southwest 306 352 32,000  Level Atlanta Center
Tue 09:13:10 PM 35.3264 -80.3350 201° Southwest 311 358 32,000  Level Atlanta Center
Tue 09:14:10 PM 35.2464 -80.3767 203° Southwest 311 358 32,000  Level Atlanta Center
Tue 09:15:10 PM 35.1642 -80.4183 203° Southwest 311 358 32,000  Level Atlanta Center
Tue 09:15:56 PM 35.1039 -80.4467 201° Southwest 298 343 32,000  Level Jacksonville Center
Tue 09:16:56 PM 35.0214 -80.4897 203° Southwest 304 350 32,000  Level Jacksonville Center
Tue 09:17:56 PM 34.9386 -80.5275 201° Southwest 309 356 32,000  Level Jacksonville Center
Tue 09:18:56 PM 34.8561 -80.5703 203° Southwest 314 361 32,000 -50 Level Jacksonville Center
Tue 09:19:56 PM 34.7733 -80.6128 203° Southwest 309 356 31,900  Descending Jacksonville Center
Tue 09:20:56 PM 34.6886 -80.6531 201° Southwest 314 361 32,000  Climbing Jacksonville Center
Tue 09:21:56 PM 34.6081 -80.6928 202° Southwest 314 361 31,900  Descending Jacksonville Center
Tue 09:22:56 PM 34.5294 -80.7303 201° Southwest 326 375 32,000 50 Climbing Jacksonville Center
Tue 09:23:56 PM 34.4486 -80.7675 201° Southwest 326 375 32,000  Level Jacksonville Center
Tue 09:24:56 PM 34.3658 -80.8122 204° Southwest 331 381 32,000  Level Jacksonville Center
Tue 09:25:56 PM 34.2706 -80.8572 201° Southwest 331 381 32,000 -50 Level Jacksonville Center
Tue 09:26:56 PM 34.1942 -80.8967 203° Southwest 316 364 31,900 -50 Descending Jacksonville Center
Tue 09:27:56 PM 34.1175 -80.9311 200° South 316 364 31,900  Level Jacksonville Center
Tue 09:28:56 PM 34.0367 -80.9706 202° Southwest 316 364 31,900  Level Jacksonville Center
Tue 09:29:56 PM 33.9558 -81.0072 201° Southwest 316 364 31,900 50 Level Jacksonville Center
Tue 09:30:56 PM 33.8731 -81.0467 202° Southwest 316 364 32,000 50 Climbing Jacksonville Center
Tue 09:31:56 PM 33.7900 -81.0883 203° Southwest 316 364 32,000  Level Jacksonville Center
Tue 09:32:56 PM 33.7031 -81.1325 203° Southwest 321 369 32,000  Level Jacksonville Center
Tue 09:33:56 PM 33.6222 -81.1742 203° Southwest 321 369 32,000  Level Jacksonville Center
Tue 09:34:56 PM 33.5328 -81.2006 194° South 331 381 32,000  Level Jacksonville Center
Tue 09:35:56 PM 33.4436 -81.2297 195° South 331 381 32,000  Level Jacksonville Center
Tue 09:36:56 PM 33.3542 -81.2564 194° South 331 381 32,000  Level Jacksonville Center
Tue 09:37:56 PM 33.2628 -81.2853 195° South 337 388 32,000 -50 Level Jacksonville Center
Tue 09:38:56 PM 33.1692 -81.3119 193° South 337 388 31,900  Descending Jacksonville Center
Tue 09:39:57 PM 33.0756 -81.3408 194° South 343 395 32,000 50 Climbing Jacksonville Center
Tue 09:40:56 PM 32.9819 -81.3694 194° South 343 395 32,000 -50 Level Jacksonville Center
Tue 09:41:56 PM 32.8864 -81.3983 194° South 343 395 31,900  Descending Jacksonville Center
Tue 09:42:56 PM 32.7928 -81.4272 195° South 348 400 32,000  Climbing Jacksonville Center
Tue 09:43:56 PM 32.6969 -81.4558 194° South 348 400 31,900  Descending Jacksonville Center
Tue 09:44:56 PM 32.5950 -81.4869 194° South 353 406 32,000 50 Climbing Jacksonville Center
Tue 09:45:56 PM 32.5014 -81.5156 194° South 353 406 32,000  Level Jacksonville Center
Tue 09:46:56 PM 32.4161 -81.5417 194° South 353 406 32,000  Level Jacksonville Center
Tue 09:47:56 PM 32.3119 -81.5725 194° South 353 406 32,000  Level Jacksonville Center
Tue 09:48:56 PM 32.2164 -81.6008 194° South 359 413 32,000  Level Jacksonville Center
Tue 09:49:56 PM 32.1186 -81.6292 194° South 359 413 32,000  Level Jacksonville Center
Tue 09:50:56 PM 32.0228 -81.6575 194° South 359 413 32,000  Level Jacksonville Center
Tue 09:51:56 PM 31.9353 -81.6833 194° South 359 413 32,000  Level Jacksonville Center
Tue 09:52:56 PM 31.8292 -81.7164 195° South 359 413 32,000  Level Jacksonville Center
Tue 09:53:56 PM 31.7311 -81.7419 192° South 359 413 32,000  Level Jacksonville Center
Tue 09:54:56 PM 31.6439 -81.7675 194° South 354 407 32,000  Level Jacksonville Center
Tue 09:55:56 PM 31.5375 -81.8006 195° South 361 415 32,000  Level Jacksonville Center
Tue 09:56:56 PM 31.4500 -81.8258 194° South 356 410 32,000  Level Jacksonville Center
Tue 09:57:56 PM 31.3522 -81.8561 195° South 356 410 32,000  Level Jacksonville Center
Tue 09:58:56 PM 31.2542 -81.8839 194° South 361 415 32,000  Level Jacksonville Center
Tue 09:59:56 PM 31.1564 -81.9117 194° South 361 415 32,000  Level Jacksonville Center
Tue 10:00:57 PM 31.0583 -81.9419 195° South 361 415 32,000  Level Jacksonville Center
Tue 10:01:56 PM 30.9606 -81.9694 194° South 361 415 32,000 -50 Level Jacksonville Center
Tue 10:02:56 PM 30.8625 -81.9972 194° South 361 415 31,900  Descending Jacksonville Center
Tue 10:03:56 PM 30.7625 -82.0269 194° South 361 415 32,000 50 Climbing Jacksonville Center
Tue 10:04:56 PM 30.6647 -82.0544 194° South 361 415 32,000  Level Jacksonville Center
Tue 10:05:56 PM 30.5667 -82.0844 195° South 366 421 32,000  Level Jacksonville Center
Tue 10:06:57 PM 30.4542 -82.1069 190° South 371 427 32,000  Level Jacksonville Center
Tue 10:07:56 PM 30.3542 -82.1367 194° South 378 435 32,000 -202 Level Jacksonville Center
Tue 10:08:56 PM 30.2539 -82.1664 194° South 372 428 31,600 -650 Descending Jacksonville Center
Tue 10:09:56 PM 30.1519 -82.1958 194° South 372 428 30,700 -950 Descending Jacksonville Center
Tue 10:10:56 PM 30.0497 -82.2256 194° South 377 434 29,700 -950 Descending Jacksonville Center
Tue 10:11:56 PM 29.9539 -82.2572 196° South 382 440 28,800 -942 Descending Jacksonville Center
Tue 10:12:57 PM 29.8539 -82.2867 194° South 382 440 27,800 -1,050 Descending Jacksonville Center
Tue 10:13:56 PM 29.7411 -82.3042 188° South 375 432 26,700 -1,059 Descending Jacksonville Center
Tue 10:14:56 PM 29.6306 -82.2975 177° South 375 432 25,700 -942 Descending Jacksonville Center
Tue 10:15:57 PM 29.5386 -82.2958 179° South 375 432 24,800 -950 Descending Jacksonville Center
Tue 10:16:56 PM 29.4322 -82.2892 177° South 380 437 23,800 -1,008 Descending Jacksonville Center
Tue 10:17:56 PM 29.3278 -82.2853 178° South 380 437 22,800 -1,041 Descending Jacksonville Center
Tue 10:18:57 PM 29.2233 -82.2786 177° South 380 437 21,700 -1,900 Descending Jacksonville Center
Tue 10:19:56 PM 29.1231 -82.2744 178° South 380 437 19,000 -2,622 Descending Jacksonville Center
Tue 10:20:56 PM 29.0208 -82.2706 178° South 380 437 16,500 -2,600 Descending Jacksonville Center
Tue 10:21:56 PM 28.9058 -82.2664 178° South 380 437 13,800 -1,105 Descending Jacksonville Center
Tue 10:24:06 PM 28.7000 -82.2667 180° South 358 412 13,000 -411 Descending Tampa TRACON
Tue 10:25:06 PM 28.6000 -82.2667 180° South 328 377 12,500 -750 Descending Tampa TRACON
Tue 10:26:06 PM 28.5667 -82.3500 246° West 289 333 11,500 -1,000 Descending Tampa TRACON
Tue 10:27:06 PM 28.5167 -82.4333 236° Southwest 270 311 10,500 -750 Descending Tampa TRACON
Tue 10:28:06 PM 28.4667 -82.5000 230° Southwest 261 300 10,000 -300 Descending Tampa TRACON
Tue 10:29:06 PM 28.4333 -82.5667 240° Southwest 263 303 9,900 -750 Descending Tampa TRACON
Tue 10:30:06 PM 28.3667 -82.6167 213° Southwest 261 300 8,500 -1,450 Descending Tampa TRACON
Tue 10:31:06 PM 28.3167 -82.6667 221° Southwest 250 288 7,000 -1,250 Descending Tampa TRACON
Tue 10:32:06 PM 28.2667 -82.7167 221° Southwest 261 300 6,000 -571 Descending Tampa TRACON
Tue 10:33:12 PM 28.1833 -82.7500 199° South 267 307 5,800 -714 Descending Tampa TRACON
Tue 10:34:12 PM 28.1167 -82.7667 192° South 267 307 4,500 -1,350 Descending Tampa TRACON
Tue 10:35:12 PM 28.0333 -82.7500 170° South 265 305 3,100 -1,000 Descending Tampa TRACON
Tue 10:36:06 PM 27.9667 -82.7500 180° South 260 299 2,600 -316 Descending Tampa TRACON
Tue 10:37:06 PM 27.9000 -82.7500 180° South 218 251 2,500 -524 Descending Tampa TRACON
Tue 10:38:12 PM 27.8333 -82.7333 168° South 227 261 1,500 -524 Descending Tampa TRACON
Tue 10:39:12 PM 27.8333 -82.6833 90° East 152 175 1,400 -400 Descending Tampa TRACON
Tue 10:40:12 PM 27.8667 -82.6833 360° North 112 129 700 -700 Descending Tampa TRACON
Tue 10:42:00 PM 27.9000 -82.6833 310° West  Level FlightAware Approximate
Tue 10:49:00 PM 27.9100 -82.6875 318° Northwest  Level Estimated
Tue 10:50:00 PM 27.9100 -82.6875 55° Northeast  Level Estimated

Login

Don't have an account? Register now (free) for customized features, flight alerts, and more!